Time;durP1;ratioP1;P1;durP2;ratioP2;P2;SDS_P1;SDS_P2;PMS_P1;PMS_P2;Temp;Humidity;BMP_temperature;BMP_pressure;BME280_temperature;BME280_humidity;BME280_pressure;Samples;Min_cycle;Max_cycle;Signal;HPM_P1;HPM_P2
2023/07/13 00:04:33;;;;;;;4.15;1.25;;;21.60;80.30;;;;;;10376028;28;20522;-66
2023/07/13 00:09:34;;;;;;;4.03;1.23;;;21.60;80.40;;;;;;10382627;28;20079;-66
2023/07/13 00:14:35;;;;;;;4.78;1.20;;;21.60;80.50;;;;;;10380960;28;20547;-66
2023/07/13 00:19:36;;;;;;;2.13;0.90;;;21.60;80.60;;;;;;10374782;28;20189;-66
2023/07/13 00:24:41;;;;;;;3.53;1.27;;;21.60;80.70;;;;;;10379803;28;20176;-67
2023/07/13 00:29:42;;;;;;;4.68;1.30;;;21.60;80.70;;;;;;10370678;28;20018;-67
2023/07/13 00:34:43;;;;;;;3.40;1.10;;;21.50;80.80;;;;;;10379868;28;20036;-66
2023/07/13 00:39:43;;;;;;;3.53;1.45;;;21.50;80.80;;;;;;10383647;28;20053;-66
2023/07/13 00:45:03;;;;;;;3.00;1.15;;;21.50;80.80;;;;;;10376751;28;20025;-66
2023/07/13 00:50:08;;;;;;;4.22;1.63;;;21.50;81.00;;;;;;10381526;28;20025;-66
2023/07/13 00:55:11;;;;;;;4.18;1.20;;;21.40;81.00;;;;;;10379451;28;20022;-67
2023/07/13 01:00:12;;;;;;;3.00;1.10;;;21.40;81.00;;;;;;10381792;28;20026;-66
2023/07/13 01:05:22;;;;;;;4.88;1.40;;;21.40;81.70;;;;;;10382357;28;20028;-66
2023/07/13 01:10:23;;;;;;;2.70;0.98;;;21.40;81.20;;;;;;10371252;28;20376;-66
2023/07/13 01:15:43;;;;;;;9.45;1.58;;;21.30;81.30;;;;;;10375240;28;20040;-67
2023/07/13 01:20:52;;;;;;;2.85;1.48;;;21.30;81.40;;;;;;10374053;28;20020;-66
2023/07/13 01:25:55;;;;;;;5.28;1.30;;;21.30;81.40;;;;;;10383650;28;20025;-66
2023/07/13 01:30:58;;;;;;;2.63;1.17;;;21.30;81.40;;;;;;10378863;28;20029;-66
2023/07/13 01:35:58;;;;;;;2.92;1.00;;;21.30;81.50;;;;;;10376891;28;20018;-67
2023/07/13 01:40:59;;;;;;;3.30;1.35;;;21.20;81.50;;;;;;10383020;28;20025;-66
2023/07/13 01:46:00;;;;;;;4.53;1.52;;;21.20;81.70;;;;;;10376991;28;20585;-66
2023/07/13 01:51:00;;;;;;;5.47;1.30;;;21.20;81.70;;;;;;10377153;28;20026;-66
2023/07/13 01:56:01;;;;;;;2.75;1.15;;;21.20;81.80;;;;;;10389950;28;20060;-67
2023/07/13 02:01:02;;;;;;;2.25;1.00;;;21.10;81.80;;;;;;10383049;28;20017;-66
2023/07/13 02:06:03;;;;;;;3.90;1.17;;;21.10;81.90;;;;;;10382010;28;20034;-66
2023/07/13 02:11:04;;;;;;;4.70;1.25;;;21.10;82.00;;;;;;10388663;28;20029;-66
2023/07/13 02:16:05;;;;;;;2.78;1.25;;;21.10;82.00;;;;;;10392256;28;20025;-66
2023/07/13 02:21:06;;;;;;;2.20;1.20;;;21.10;82.10;;;;;;10384991;28;20014;-66
2023/07/13 02:26:06;;;;;;;2.78;1.20;;;21.00;82.10;;;;;;10393620;28;20500;-66
2023/07/13 02:31:09;;;;;;;5.20;1.20;;;21.00;82.10;;;;;;10388817;28;20097;-66
2023/07/13 02:36:11;;;;;;;2.30;1.30;;;21.00;82.20;;;;;;10385612;28;20063;-67
2023/07/13 02:41:12;;;;;;;5.75;1.70;;;21.00;82.20;;;;;;10391557;28;20551;-66
2023/07/13 02:46:13;;;;;;;4.45;1.20;;;20.90;82.20;;;;;;10387843;28;20101;-66
2023/07/13 02:51:13;;;;;;;3.40;1.25;;;20.90;82.20;;;;;;10387279;28;20031;-66
2023/07/13 02:56:14;;;;;;;2.33;1.10;;;20.90;82.20;;;;;;10391446;28;20019;-66
2023/07/13 03:01:18;;;;;;;3.30;1.33;;;20.90;82.30;;;;;;10385223;28;20493;-67
2023/07/13 03:06:19;;;;;;;2.60;0.93;;;20.90;82.30;;;;;;10376530;28;20729;-66
2023/07/13 03:11:21;;;;;;;5.63;1.23;;;20.80;82.30;;;;;;10372501;28;20026;-66
2023/07/13 03:16:21;;;;;;;4.15;1.23;;;20.80;82.30;;;;;;10384799;28;20629;-66
2023/07/13 03:21:22;;;;;;;3.55;1.00;;;20.80;82.40;;;;;;10384947;28;20022;-66
2023/07/13 03:26:23;;;;;;;3.17;1.20;;;20.80;83.00;;;;;;10396721;28;20059;-66
2023/07/13 03:31:28;;;;;;;1.98;1.30;;;20.80;82.50;;;;;;10386495;28;20401;-66
2023/07/13 03:36:30;;;;;;;3.47;0.90;;;20.80;82.60;;;;;;10382305;28;20029;-66
2023/07/13 03:41:31;;;;;;;3.47;1.20;;;20.70;82.60;;;;;;10395212;28;20025;-66
2023/07/13 03:46:33;;;;;;;2.95;1.20;;;20.70;82.60;;;;;;10383497;28;20352;-66
2023/07/13 03:51:34;;;;;;;4.05;1.60;;;20.70;82.70;;;;;;10386541;28;20036;-66
2023/07/13 03:56:35;;;;;;;3.47;1.33;;;20.70;82.70;;;;;;10395403;28;20486;-66
2023/07/13 04:01:35;;;;;;;3.03;1.02;;;20.60;82.70;;;;;;10380809;28;20429;-66
2023/07/13 04:06:37;;;;;;;2.42;1.35;;;20.60;82.80;;;;;;10362764;28;20155;-66
2023/07/13 04:11:38;;;;;;;3.03;1.30;;;20.60;82.90;;;;;;10369195;28;20038;-66
2023/07/13 04:16:39;;;;;;;4.10;1.45;;;20.60;82.90;;;;;;10369263;28;20040;-66
2023/07/13 04:21:39;;;;;;;2.75;1.17;;;20.60;82.90;;;;;;10367993;28;20803;-66
2023/07/13 04:26:40;;;;;;;3.22;1.15;;;20.60;82.90;;;;;;10372925;28;20034;-66
2023/07/13 04:31:41;;;;;;;5.63;1.27;;;20.50;82.90;;;;;;10377587;28;20053;-66
2023/07/13 04:36:41;;;;;;;4.88;1.33;;;20.50;83.00;;;;;;10377321;28;20109;-66
2023/07/13 04:41:42;;;;;;;2.13;1.10;;;20.50;83.00;;;;;;10376099;28;20029;-66
2023/07/13 04:46:43;;;;;;;6.00;2.25;;;20.50;83.10;;;;;;10362419;28;20402;-66
2023/07/13 04:51:43;;;;;;;3.17;1.23;;;20.50;83.10;;;;;;10367994;28;20033;-66
2023/07/13 04:56:44;;;;;;;3.80;1.20;;;20.50;83.10;;;;;;10370209;28;20022;-67
2023/07/13 05:01:45;;;;;;;6.80;1.23;;;20.50;83.10;;;;;;10375834;28;20021;-66
2023/07/13 05:06:46;;;;;;;3.83;1.30;;;20.50;83.20;;;;;;10374751;28;20151;-66
2023/07/13 05:11:46;;;;;;;2.83;1.02;;;20.50;83.20;;;;;;10373335;28;20156;-66
2023/07/13 05:16:47;;;;;;;4.43;1.30;;;20.50;83.20;;;;;;10365537;28;20382;-66
2023/07/13 05:21:48;;;;;;;2.92;1.38;;;20.40;83.20;;;;;;10371661;28;20010;-66
2023/07/13 05:26:48;;;;;;;6.07;1.08;;;20.40;83.20;;;;;;10372783;28;20026;-67
2023/07/13 05:31:50;;;;;;;2.40;1.00;;;20.40;83.20;;;;;;10372575;28;20504;-68
2023/07/13 05:36:51;;;;;;;3.70;1.05;;;20.40;83.20;;;;;;10363289;28;20022;-68
2023/07/13 05:41:51;;;;;;;3.67;1.45;;;20.40;83.40;;;;;;10377591;28;20021;-68
2023/07/13 05:46:52;;;;;;;2.58;1.13;;;20.40;83.40;;;;;;10374656;28;20029;-68
2023/07/13 05:51:53;;;;;;;4.55;1.13;;;20.40;83.40;;;;;;10368396;28;20033;-68
2023/07/13 05:56:53;;;;;;;2.60;1.35;;;20.40;83.40;;;;;;10372869;28;20025;-68
2023/07/13 06:01:54;;;;;;;5.07;1.20;;;20.40;83.50;;;;;;10357955;28;20053;-68
2023/07/13 06:06:55;;;;;;;3.50;1.38;;;20.40;83.50;;;;;;10362287;28;20022;-69
2023/07/13 06:11:56;;;;;;;4.75;1.38;;;20.40;83.50;;;;;;10371739;28;20032;-68
2023/07/13 06:16:56;;;;;;;2.90;1.17;;;20.40;83.50;;;;;;10371937;28;20172;-68
2023/07/13 06:21:58;;;;;;;3.38;1.10;;;20.40;83.60;;;;;;10358423;28;20027;-68
2023/07/13 06:26:59;;;;;;;2.03;1.02;;;20.40;83.60;;;;;;10365868;28;20025;-69
2023/07/13 06:31:59;;;;;;;3.00;1.15;;;20.40;83.60;;;;;;10370982;28;20029;-68
2023/07/13 06:37:00;;;;;;;4.07;1.33;;;20.40;83.60;;;;;;10376903;28;20079;-68
2023/07/13 06:42:01;;;;;;;3.50;1.38;;;20.50;83.70;;;;;;10377551;28;20028;-68
2023/07/13 06:47:01;;;;;;;3.65;1.20;;;20.50;83.70;;;;;;10385919;28;20029;-66
2023/07/13 06:52:02;;;;;;;3.63;1.40;;;20.30;83.60;;;;;;10377216;28;20044;-66
2023/07/13 06:57:03;;;;;;;3.60;1.23;;;20.50;83.80;;;;;;10382344;28;20033;-66
2023/07/13 07:02:04;;;;;;;3.28;1.00;;;20.50;83.80;;;;;;10380849;28;20035;-66
2023/07/13 07:07:05;;;;;;;3.63;1.20;;;20.50;83.90;;;;;;10380107;28;20029;-67
2023/07/13 07:12:06;;;;;;;2.70;1.10;;;20.50;83.90;;;;;;10374504;28;20026;-68
2023/07/13 07:17:07;;;;;;;2.88;1.30;;;20.50;83.90;;;;;;10376862;28;20029;-69
2023/07/13 07:22:07;;;;;;;3.53;1.17;;;20.50;84.00;;;;;;10376034;28;20550;-69
2023/07/13 07:27:08;;;;;;;4.03;1.38;;;20.50;84.00;;;;;;10380011;28;21309;-69
2023/07/13 07:32:09;;;;;;;4.53;1.40;;;20.60;84.10;;;;;;10378757;28;20025;-69
2023/07/13 07:37:12;;;;;;;4.82;1.60;;;20.60;84.10;;;;;;10374757;28;20022;-69
2023/07/13 07:42:13;;;;;;;2.58;1.15;;;20.60;84.10;;;;;;10381814;28;20430;-69
2023/07/13 07:47:15;;;;;;;3.35;1.40;;;20.60;84.00;;;;;;10377282;28;20028;-69
2023/07/13 07:52:15;;;;;;;2.25;1.40;;;20.70;84.10;;;;;;10378627;28;20025;-69
2023/07/13 07:57:16;;;;;;;5.00;1.20;;;20.70;84.00;;;;;;10373794;28;20482;-69
2023/07/13 08:02:17;;;;;;;4.22;1.20;;;20.80;83.90;;;;;;10384486;28;20151;-71
2023/07/13 08:07:18;;;;;;;5.70;1.80;;;20.80;84.00;;;;;;10370253;28;20025;-71
2023/07/13 08:12:18;;;;;;;5.10;2.40;;;20.80;84.40;;;;;;10369141;28;20075;-70
2023/07/13 08:17:22;;;;;;;6.10;2.30;;;20.80;84.60;;;;;;10371778;28;20513;-70
2023/07/13 08:22:23;;;;;;;4.22;1.90;;;20.80;85.10;;;;;;10383783;28;20025;-72
2023/07/13 08:27:25;;;;;;;5.63;2.08;;;20.80;85.20;;;;;;10380854;28;20497;-74
2023/07/13 08:32:26;;;;;;;6.85;1.85;;;20.80;85.40;;;;;;10372610;28;20018;-71
2023/07/13 08:37:26;;;;;;;5.68;1.95;;;20.80;86.30;;;;;;10376560;28;20478;-71
2023/07/13 08:42:27;;;;;;;3.70;2.00;;;20.70;85.70;;;;;;10379016;28;20029;-72
2023/07/13 08:47:30;;;;;;;5.45;2.45;;;20.70;86.10;;;;;;10369188;28;20512;-71
2023/07/13 08:52:40;;;;;;;6.22;2.25;;;20.50;86.60;;;;;;10375976;28;20026;-71
2023/07/13 08:57:43;;;;;;;5.03;1.95;;;20.40;87.30;;;;;;10380113;28;20029;-71
2023/07/13 09:02:57;;;;;;;4.97;2.05;;;20.30;87.40;;;;;;10372375;28;20194;-70
2023/07/13 09:08:01;;;;;;;4.93;2.00;;;20.30;87.60;;;;;;10376269;28;20136;-70
2023/07/13 09:13:30;;;;;;;3.38;1.95;;;20.30;87.40;;;;;;10371963;28;20340;-71
2023/07/13 09:18:42;;;;;;;4.50;2.08;;;20.30;87.60;;;;;;10368549;28;20030;-70
2023/07/13 09:23:44;;;;;;;5.63;1.88;;;20.30;87.50;;;;;;10364479;28;20057;-70
2023/07/13 09:28:48;;;;;;;5.53;1.88;;;20.30;87.30;;;;;;10366119;28;20495;-70
2023/07/13 09:33:50;;;;;;;5.18;2.22;;;20.30;87.30;;;;;;10380879;28;20029;-72
2023/07/13 09:39:03;;;;;;;2.90;1.88;;;20.30;87.20;;;;;;10372183;28;20025;-70
2023/07/13 09:44:12;;;;;;;4.05;2.00;;;20.30;87.30;;;;;;10377785;28;20032;-70
2023/07/13 09:49:13;;;;;;;2.45;1.45;;;20.40;87.30;;;;;;10378610;28;20044;-71
2023/07/13 09:54:24;;;;;;;3.17;1.83;;;20.30;87.30;;;;;;10374386;28;20032;-69
2023/07/13 09:59:32;;;;;;;6.97;2.50;;;20.30;88.70;;;;;;10374662;28;20029;-70
2023/07/13 10:04:34;;;;;;;4.68;2.97;;;20.20;90.00;;;;;;10375989;28;20022;-69
2023/07/13 10:09:35;;;;;;;5.05;3.42;;;20.20;90.80;;;;;;10380934;28;20038;-72
2023/07/13 10:14:36;;;;;;;5.68;3.72;;;20.20;91.30;;;;;;10379143;28;20061;-71
2023/07/13 10:19:37;;;;;;;8.07;3.90;;;20.30;91.70;;;;;;10374323;28;20500;-71
2023/07/13 10:24:39;;;;;;;7.03;3.63;;;20.40;92.20;;;;;;10377152;28;20776;-71
2023/07/13 10:29:52;;;;;;;9.90;3.88;;;20.30;92.50;;;;;;10377081;28;20029;-69
2023/07/13 10:34:56;;;;;;;6.65;3.05;;;20.20;93.00;;;;;;10380680;28;20050;-69
2023/07/13 10:39:58;;;;;;;6.72;2.90;;;20.20;93.00;;;;;;10385269;28;20532;-68
2023/07/13 10:44:59;;;;;;;6.45;2.90;;;20.20;93.00;;;;;;10383700;28;20033;-70
2023/07/13 10:50:00;;;;;;;5.10;2.65;;;20.30;93.00;;;;;;10386405;28;20563;-70
2023/07/13 10:55:03;;;;;;;5.40;3.10;;;20.30;93.00;;;;;;10383526;28;20076;-69
2023/07/13 11:00:17;;;;;;;2.92;2.05;;;20.40;92.90;;;;;;10382378;28;20032;-69
2023/07/13 11:05:27;;;;;;;3.63;2.03;;;20.40;92.80;;;;;;10377182;28;20433;-69
2023/07/13 11:11:00;;;;;;;8.25;2.10;;;20.40;92.80;;;;;;10377297;28;20064;-70
2023/07/13 11:16:11;;;;;;;4.43;2.20;;;20.50;92.90;;;;;;10385180;28;20037;-68
2023/07/13 11:21:17;;;;;;;5.28;2.53;;;20.50;92.40;;;;;;10405984;28;20014;-69
2023/07/13 11:26:46;;;;;;;12.07;2.67;;;20.60;92.40;;;;;;10388412;28;20041;-68
2023/07/13 11:31:55;;;;;;;5.93;2.50;;;20.70;92.70;;;;;;10379210;28;20050;-70
2023/07/13 11:36:59;;;;;;;5.47;2.92;;;20.70;92.40;;;;;;10379429;28;20584;-70
2023/07/13 11:42:03;;;;;;;5.82;3.00;;;20.90;92.90;;;;;;10392042;28;20079;-69
2023/07/13 11:47:31;;;;;;;5.05;2.03;;;21.00;93.20;;;;;;10389168;28;20030;-71
2023/07/13 11:52:35;;;;;;;4.68;2.17;;;21.10;93.60;;;;;;10385755;28;20406;-70
2023/07/13 11:57:44;;;;;;;4.60;2.50;;;21.20;92.70;;;;;;10380254;28;20025;-71
2023/07/13 12:02:49;;;;;;;5.10;1.98;;;21.20;92.80;;;;;;10380120;28;20026;-70
2023/07/13 12:07:50;;;;;;;6.30;2.20;;;21.30;92.60;;;;;;10386330;28;20018;-71
2023/07/13 12:12:57;;;;;;;5.40;2.00;;;21.50;92.20;;;;;;10391037;28;20021;-71
2023/07/13 12:17:58;;;;;;;3.57;1.83;;;21.70;91.80;;;;;;10388845;28;20067;-69
2023/07/13 12:23:00;;;;;;;2.42;1.75;;;21.80;91.40;;;;;;10380124;28;20052;-71
2023/07/13 12:28:21;;;;;;;5.65;1.73;;;21.80;90.70;;;;;;10379805;28;20032;-71
2023/07/13 12:33:28;;;;;;;11.18;1.90;;;21.70;88.90;;;;;;10384676;28;20021;-71
2023/07/13 12:38:31;;;;;;;6.77;1.90;;;21.90;89.40;;;;;;10381358;28;20117;-72
2023/07/13 12:43:37;;;;;;;3.53;1.60;;;22.00;88.50;;;;;;10384156;28;20028;-71
2023/07/13 12:48:41;;;;;;;4.20;1.73;;;22.10;87.10;;;;;;10382939;28;20026;-70
2023/07/13 12:53:50;;;;;;;2.60;1.20;;;22.20;86.40;;;;;;10376673;28;20033;-69
2023/07/13 12:59:02;;;;;;;6.50;1.42;;;22.30;86.70;;;;;;10383574;28;20486;-70
2023/07/13 13:04:08;;;;;;;4.45;1.35;;;22.50;86.20;;;;;;10380077;28;20033;-70
2023/07/13 13:09:13;;;;;;;2.10;1.30;;;22.60;85.70;;;;;;10372167;28;20079;-68
2023/07/13 13:14:14;;;;;;;4.85;2.08;;;22.70;84.80;;;;;;10380740;28;20025;-67
2023/07/13 13:19:18;;;;;;;1.90;1.33;;;22.80;85.30;;;;;;10370407;28;20076;-68
2023/07/13 13:24:21;;;;;;;4.07;1.45;;;23.00;84.90;;;;;;10371308;28;20020;-68
2023/07/13 13:29:26;;;;;;;3.70;1.40;;;22.90;84.20;;;;;;10385704;28;20489;-69
2023/07/13 13:34:27;;;;;;;3.63;2.13;;;22.60;85.40;;;;;;10383394;28;20022;-69
2023/07/13 13:39:36;;;;;;;2.95;1.20;;;22.70;84.60;;;;;;10373742;28;20030;-68
2023/07/13 13:44:37;;;;;;;4.80;1.35;;;22.80;83.60;;;;;;10391182;28;20186;-68
2023/07/13 13:49:38;;;;;;;2.65;1.33;;;22.70;83.90;;;;;;10389827;28;20148;-68
2023/07/13 13:54:39;;;;;;;4.57;1.73;;;22.90;83.20;;;;;;10395449;28;20030;-68
2023/07/13 13:59:40;;;;;;;7.00;1.38;;;23.20;83.00;;;;;;10387599;28;20052;-69
2023/07/13 14:04:41;;;;;;;3.42;1.30;;;23.30;82.30;;;;;;10386935;28;20128;-68
2023/07/13 14:09:41;;;;;;;3.85;1.65;;;23.50;81.90;;;;;;10382947;28;20024;-68
2023/07/13 14:14:42;;;;;;;5.93;1.70;;;23.70;81.60;;;;;;10380242;28;20514;-67
2023/07/13 14:19:43;;;;;;;2.88;1.60;;;24.00;80.90;;;;;;10384453;28;20225;-67
2023/07/13 14:24:44;;;;;;;5.03;1.60;;;24.10;80.80;;;;;;10381537;28;20014;-68
2023/07/13 14:29:44;;;;;;;4.13;1.48;;;24.10;81.30;;;;;;10385474;28;20390;-68
2023/07/13 14:34:45;;;;;;;3.45;1.55;;;24.20;80.40;;;;;;10392808;28;20033;-68
2023/07/13 14:39:52;;;;;;;4.13;1.67;;;24.40;80.40;;;;;;10390500;28;20014;-69
2023/07/13 14:44:54;;;;;;;4.47;1.97;;;24.10;80.00;;;;;;10388275;28;20082;-69
2023/07/13 14:49:55;;;;;;;5.45;1.95;;;23.80;80.60;;;;;;10393522;28;20091;-69
2023/07/13 14:54:56;;;;;;;3.05;1.55;;;23.70;80.70;;;;;;10392653;28;20045;-70
2023/07/13 14:59:56;;;;;;;3.83;1.63;;;23.70;81.20;;;;;;10374797;28;20094;-68
2023/07/13 15:04:58;;;;;;;6.85;1.73;;;23.70;80.60;;;;;;10379614;28;20018;-69
2023/07/13 15:10:00;;;;;;;6.85;1.70;;;23.50;81.00;;;;;;10379745;28;20521;-70
2023/07/13 15:15:00;;;;;;;2.80;1.50;;;23.60;80.70;;;;;;10377204;28;20069;-70
2023/07/13 15:20:06;;;;;;;3.88;1.67;;;23.40;81.10;;;;;;10367510;28;20569;-72
2023/07/13 15:25:19;;;;;;;5.60;1.73;;;23.10;81.40;;;;;;10380935;28;20484;-72
2023/07/13 15:30:20;;;;;;;4.10;1.60;;;23.30;81.30;;;;;;10374716;28;20014;-72
2023/07/13 15:35:25;;;;;;;4.10;1.40;;;23.50;80.80;;;;;;10370502;28;20054;-70
2023/07/13 15:40:26;;;;;;;5.60;1.73;;;23.50;80.00;;;;;;10374535;28;20014;-68
2023/07/13 15:45:27;;;;;;;3.47;1.35;;;23.60;80.30;;;;;;10380612;28;20014;-68
2023/07/13 15:50:42;;;;;;;4.65;1.65;;;23.60;79.90;;;;;;10373384;28;20023;-67
2023/07/13 15:55:42;;;;;;;4.47;1.70;;;23.60;79.00;;;;;;10381398;28;20022;-65
2023/07/13 16:00:44;;;;;;;4.00;1.70;;;23.40;79.90;;;;;;10377266;28;20018;-68
2023/07/13 16:05:46;;;;;;;5.88;1.73;;;23.40;80.10;;;;;;10377927;28;20033;-68
2023/07/13 16:10:47;;;;;;;9.10;1.80;;;23.30;79.90;;;;;;10378908;28;20010;-68
2023/07/13 16:15:48;;;;;;;2.22;1.60;;;23.20;79.90;;;;;;10378362;28;20478;-68
2023/07/13 16:20:49;;;;;;;3.70;1.60;;;23.10;79.80;;;;;;10368559;28;20068;-68
2023/07/13 16:25:51;;;;;;;4.72;1.70;;;23.10;80.20;;;;;;10379872;28;20516;-68
2023/07/13 16:30:52;;;;;;;6.90;1.60;;;23.00;80.20;;;;;;10376711;28;20117;-68
2023/07/13 16:35:53;;;;;;;4.10;1.55;;;22.90;80.00;;;;;;10373847;28;20034;-67
2023/07/13 16:40:54;;;;;;;3.83;1.55;;;22.80;80.20;;;;;;10377720;28;20030;-68
2023/07/13 16:46:01;;;;;;;4.80;1.70;;;22.70;80.30;;;;;;10378620;28;20026;-68
2023/07/13 16:51:04;;;;;;;3.28;1.50;;;22.70;80.40;;;;;;10378893;28;20084;-68
2023/07/13 16:56:16;;;;;;;2.53;1.90;;;22.60;80.20;;;;;;10369315;28;20037;-68
2023/07/13 17:01:17;;;;;;;4.38;1.85;;;22.50;79.80;;;;;;10371988;28;20037;-68
2023/07/13 17:06:23;;;;;;;5.53;1.60;;;22.40;80.50;;;;;;10373355;28;20040;-67
2023/07/13 17:11:26;;;;;;;4.35;1.85;;;22.40;80.20;;;;;;10371880;28;20478;-70
2023/07/13 17:16:27;;;;;;;4.07;2.03;;;22.40;80.30;;;;;;10373739;28;20054;-68
2023/07/13 17:21:28;;;;;;;2.85;2.05;;;22.30;80.50;;;;;;10367651;28;20017;-68
2023/07/13 17:26:29;;;;;;;5.57;2.38;;;22.20;81.00;;;;;;10376782;28;20102;-67
2023/07/13 17:31:30;;;;;;;3.00;2.10;;;22.20;81.50;;;;;;10364120;28;20084;-69
2023/07/13 17:36:33;;;;;;;4.13;2.17;;;22.10;81.60;;;;;;10365286;28;20038;-68
2023/07/13 17:41:34;;;;;;;4.72;2.13;;;22.00;81.80;;;;;;10365209;28;20406;-70
2023/07/13 17:46:35;;;;;;;3.97;1.90;;;22.00;81.90;;;;;;10369735;28;20417;-68
2023/07/13 17:51:37;;;;;;;5.32;2.00;;;21.80;82.30;;;;;;10361701;28;20030;-68
2023/07/13 17:56:38;;;;;;;3.90;1.90;;;21.80;82.50;;;;;;10374407;28;20084;-68
2023/07/13 18:01:40;;;;;;;5.97;2.33;;;21.80;82.50;;;;;;10369782;28;20040;-68
2023/07/13 18:06:52;;;;;;;3.97;1.98;;;21.80;82.80;;;;;;10365528;28;20041;-68
2023/07/13 18:11:55;;;;;;;4.63;2.20;;;21.60;82.90;;;;;;10370226;28;20018;-69
2023/07/13 18:16:57;;;;;;;4.07;2.28;;;21.50;83.30;;;;;;10373612;28;20037;-68
2023/07/13 18:21:59;;;;;;;3.78;2.67;;;21.50;83.70;;;;;;10370981;28;20440;-70
2023/07/13 18:26:59;;;;;;;5.28;2.30;;;21.40;84.10;;;;;;10373861;28;20505;-68
2023/07/13 18:32:03;;;;;;;4.80;2.33;;;21.40;84.60;;;;;;10353686;28;20025;-67
2023/07/13 18:37:10;;;;;;;4.10;2.45;;;21.40;84.90;;;;;;10366380;28;20268;-68
2023/07/13 18:42:10;;;;;;;5.70;2.55;;;21.30;85.10;;;;;;10374036;28;20022;-67
2023/07/13 18:47:22;;;;;;;5.43;2.70;;;21.20;85.30;;;;;;10376706;28;20021;-68
2023/07/13 18:52:24;;;;;;;6.00;2.60;;;21.10;85.40;;;;;;10376497;28;20484;-68
2023/07/13 18:57:25;;;;;;;5.22;2.55;;;21.10;85.60;;;;;;10371138;28;20035;-67
2023/07/13 19:02:26;;;;;;;6.50;2.70;;;21.10;86.70;;;;;;10375449;28;20561;-68
2023/07/13 19:07:26;;;;;;;5.10;2.58;;;21.10;86.50;;;;;;10378402;28;20022;-68
2023/07/13 19:12:30;;;;;;;7.80;2.90;;;21.00;86.80;;;;;;10374955;28;20486;-68
2023/07/13 19:17:31;;;;;;;6.80;3.20;;;20.90;87.30;;;;;;10374330;28;20517;-68
2023/07/13 19:22:32;;;;;;;4.07;2.55;;;20.80;87.60;;;;;;10378413;28;20022;-68
2023/07/13 19:27:33;;;;;;;5.68;2.85;;;20.80;87.80;;;;;;10375151;28;20033;-67
2023/07/13 19:32:34;;;;;;;5.25;2.30;;;20.70;88.10;;;;;;10369732;28;20026;-68
2023/07/13 19:37:36;;;;;;;3.08;2.50;;;20.60;88.20;;;;;;10376174;28;20525;-67
2023/07/13 19:42:37;;;;;;;8.80;2.95;;;20.50;88.60;;;;;;10375793;28;20099;-68
2023/07/13 19:47:37;;;;;;;5.43;2.10;;;20.50;88.90;;;;;;10377110;28;20100;-70
2023/07/13 19:52:47;;;;;;;5.28;2.25;;;20.40;89.20;;;;;;10384359;28;20493;-69
2023/07/13 19:57:52;;;;;;;3.63;2.38;;;20.30;89.60;;;;;;10401613;28;20061;-70
2023/07/13 20:02:53;;;;;;;4.13;2.45;;;20.30;89.80;;;;;;10380296;28;20616;-70
2023/07/13 20:07:57;;;;;;;6.05;2.33;;;20.20;89.80;;;;;;10376791;28;20025;-67
2023/07/13 20:12:59;;;;;;;3.15;2.35;;;20.10;90.00;;;;;;10381185;28;20116;-68
2023/07/13 20:18:01;;;;;;;5.47;2.13;;;20.10;90.20;;;;;;10379063;28;20113;-68
2023/07/13 20:23:08;;;;;;;4.10;2.60;;;20.10;90.60;;;;;;10374729;28;20010;-68
2023/07/13 20:28:10;;;;;;;5.10;2.60;;;20.00;90.40;;;;;;10370070;28;20033;-68
2023/07/13 20:33:14;;;;;;;5.60;2.72;;;19.90;90.60;;;;;;10373662;28;20109;-68
2023/07/13 20:38:17;;;;;;;4.45;2.55;;;19.90;90.80;;;;;;10374188;28;20124;-68
2023/07/13 20:43:19;;;;;;;7.68;2.60;;;19.80;91.00;;;;;;10366915;28;20096;-67
2023/07/13 20:48:52;;;;;;;6.70;3.00;;;19.70;91.40;;;;;;10371966;28;20030;-70
2023/07/13 20:53:53;;;;;;;4.53;3.17;;;19.70;91.50;;;;;;10370444;28;20036;-69
2023/07/13 20:58:54;;;;;;;7.97;3.58;;;19.50;91.50;;;;;;10367459;28;20026;-69
2023/07/13 21:04:05;;;;;;;5.07;3.33;;;19.50;91.70;;;;;;10364350;28;20038;-70
2023/07/13 21:09:19;;;;;;;5.75;3.60;;;19.50;91.90;;;;;;10364491;28;20025;-71
2023/07/13 21:14:23;;;;;;;8.93;4.72;;;19.40;92.20;;;;;;10370747;28;20088;-65
2023/07/13 21:19:24;;;;;;;5.60;3.15;;;19.30;92.10;;;;;;10372712;28;20068;-63
2023/07/13 21:24:25;;;;;;;8.25;3.08;;;19.40;92.10;;;;;;10375232;28;20561;-63
2023/07/13 21:29:26;;;;;;;5.40;2.78;;;19.50;91.90;;;;;;10360786;28;20018;-63
2023/07/13 21:34:26;;;;;;;6.28;3.13;;;19.60;91.80;;;;;;10360602;28;20332;-63
2023/07/13 21:39:27;;;;;;;3.45;2.83;;;19.70;91.60;;;;;;10377566;28;20021;-65
2023/07/13 21:44:30;;;;;;;4.07;2.85;;;19.90;91.50;;;;;;10371638;28;20025;-65
2023/07/13 21:49:31;;;;;;;4.70;2.60;;;19.90;91.40;;;;;;10376503;28;20508;-65
2023/07/13 21:54:31;;;;;;;3.20;2.80;;;20.00;91.30;;;;;;10380885;28;20034;-65
2023/07/13 21:59:32;;;;;;;3.10;2.70;;;20.00;91.30;;;;;;10380095;28;20014;-65
2023/07/13 22:04:40;;;;;;;4.80;3.33;;;20.10;91.20;;;;;;10366401;28;20221;-65
2023/07/13 22:09:41;;;;;;;5.10;3.00;;;20.10;91.20;;;;;;10386451;28;20108;-65
2023/07/13 22:14:41;;;;;;;4.40;2.83;;;20.10;91.10;;;;;;10389181;28;20025;-65
2023/07/13 22:19:42;;;;;;;6.78;3.08;;;20.10;91.10;;;;;;10385271;28;20029;-65
2023/07/13 22:24:43;;;;;;;5.15;2.80;;;20.10;91.00;;;;;;10379729;28;20021;-66
2023/07/13 22:29:43;;;;;;;4.32;2.97;;;20.20;91.00;;;;;;10385870;28;20034;-65
2023/07/13 22:34:49;;;;;;;3.38;2.83;;;20.20;90.90;;;;;;10387374;28;20051;-65
2023/07/13 22:39:50;;;;;;;4.82;3.10;;;20.20;90.90;;;;;;10386057;28;20112;-65
2023/07/13 22:44:51;;;;;;;4.90;2.80;;;20.20;90.90;;;;;;10387947;28;20048;-65
2023/07/13 22:49:51;;;;;;;4.53;3.15;;;20.20;90.90;;;;;;10390649;28;20029;-65
2023/07/13 22:54:52;;;;;;;5.15;2.60;;;20.20;90.80;;;;;;10384970;28;20033;-65
2023/07/13 22:59:53;;;;;;;3.53;2.92;;;20.20;90.80;;;;;;10386840;28;20354;-65
2023/07/13 23:04:54;;;;;;;4.55;2.97;;;20.20;90.80;;;;;;10388116;28;20021;-65
2023/07/13 23:09:54;;;;;;;3.92;2.88;;;20.20;90.80;;;;;;10387174;28;20030;-66
2023/07/13 23:14:55;;;;;;;4.47;3.00;;;20.20;90.70;;;;;;10376061;28;20037;-65
2023/07/13 23:19:56;;;;;;;5.75;3.30;;;20.20;90.70;;;;;;10383183;28;20076;-65
2023/07/13 23:24:56;;;;;;;3.45;2.80;;;20.20;90.70;;;;;;10389195;28;20029;-65
2023/07/13 23:29:57;;;;;;;4.22;2.50;;;20.20;90.70;;;;;;10383078;28;20037;-65
2023/07/13 23:34:58;;;;;;;6.82;3.83;;;20.20;90.70;;;;;;10392335;28;20112;-65
2023/07/13 23:39:59;;;;;;;3.42;3.00;;;20.10;90.70;;;;;;10389992;28;20061;-65
2023/07/13 23:44:59;;;;;;;4.13;2.72;;;20.10;90.70;;;;;;10390983;28;20398;-65
2023/07/13 23:50:01;;;;;;;3.33;2.75;;;20.10;90.70;;;;;;10387383;28;20028;-65
2023/07/13 23:55:16;;;;;;;3.85;2.47;;;20.10;90.60;;;;;;10390119;28;20052;-65
